Archival Weather

Republic

Farmingdale, New York (KFRG)

Report from: Friday, February 2, 2024 6:53 AM EST
Current time: Monday, June 17, 2024 3:03 AM EDT

Current weather – Weather history – Daily summaries
Weather forecast

Present weatherMist
Temperature4.4°C (39.9°F)
Dew point3.9°C (39.0°F)
Winds Calm
Visibility4 mi. (6.4 km)
Clouds Ceiling: Broken clouds 3,300 ft. (1,006 m)
Overcast 4,500 ft. (1,372 m)
Altimeter29.84 in.Hg (1010 mB)
Precip last 3 hours0.10 in. (3 mm)
Precip last 24 hours0.10 in. (3 mm)
Relative humidity97 %
Density altitude-1,071 ft. (-326 m)
Sea-level pressure101.1 kPa (1011 mB, 29.84 in.Hg)
Max temp last 6 hours6.1°C (43.0°F)
Min temp last 6 hours4.4°C (39.9°F)
Remarks Fully automated report
Automated weather observing station without precipitation discriminator
Pressure falling, then rising
Flight conditions Marginal Visual Meteorological Conditions
Raw dataKFRG 021153Z AUTO 00000KT 4SM BR BKN033 OVC045 04/04 A2984 RMK AO1 SLP105 60010 70010 T00440039 10061 20044 55002
An error has occurred. This application may no longer respond until reloaded. Reload 🗙